Humidity-temperature Sensor

Selected Measurement Type: Air Temperature

 
Air Temperature [°C]     6 entries per hour
Showing data from 1/29/2023 (00:00:00 Z) to 1/26/2023 (00:01:00 Z)
Previous Next [ Day | 3-Days | 7-Days ]
First Last
Prev [ Day | 3-Days | 7-Days ] Next
First Last

Start Time:     :
End Time:     :     
Time (in GMT) :00 :50 :40 :30 :20 :10
Previous Next [ Day | 3-Days | 7-Days ]
First Last
Prev [ Day | 3-Days | 7-Days ] Next
First Last


123 => good data
MM => data is determined as missing
-- => data not received/configured
Back to Top Back to Top
1/29/2023 00:00 to 23:10 24.53 24.52 24.75 24.96 25.03 25.32
1/28/2023 23:00 to 22:10 24.95 24.97 25.21 25.60 25.87 26.61
1/28/2023 22:00 to 21:10 27.31 27.02 27.13 27.07 27.05 26.97
1/28/2023 21:00 to 20:10 26.99 27.02 26.94 26.82 26.83 26.76
1/28/2023 20:00 to 19:10 26.63 26.60 26.53 26.66 26.66 26.64
1/28/2023 19:00 to 18:10 26.46 26.63 26.54 26.53 26.50 26.46
1/28/2023 18:00 to 17:10 26.55 26.27 26.30 26.17 26.14 26.08
1/28/2023 17:00 to 16:10 26.04 26.02 25.86 25.49 25.18 24.93
1/28/2023 16:00 to 15:10 24.93 24.81 24.77 24.94 25.11 25.15
1/28/2023 15:00 to 14:10 25.58 25.38 26.72 26.78 26.68 26.54
1/28/2023 14:00 to 13:10 26.53 26.48 26.61 26.44 26.46 26.37
1/28/2023 13:00 to 12:10 26.28 26.34 26.23 26.16 26.31 26.12
1/28/2023 12:00 to 11:10 26.12 25.99 26.01 26.09 25.92 25.92
1/28/2023 11:00 to 10:10 25.78 25.92 25.91 25.81 25.51 25.59
1/28/2023 10:00 to 9:10 25.49 25.73 25.79 25.85 26.27 26.57
1/28/2023 09:00 to 8:10 26.67 26.78 26.79 26.69 26.66 26.62
1/28/2023 08:00 to 7:10 26.52 26.52 26.42 26.44 26.11 26.80
1/28/2023 07:00 to 6:10 26.96 27.04 26.91 26.85 26.94 26.92
1/28/2023 06:00 to 5:10 26.95 26.87 26.93 26.95 27.01 27.11
1/28/2023 05:00 to 4:10 26.92 26.98 26.95 26.97 26.92 26.96
1/28/2023 04:00 to 3:10 26.94 27.17 26.98 26.98 27.02 27.03
1/28/2023 03:00 to 2:10 27.12 27.10 27.10 27.17 27.08 26.98
1/28/2023 02:00 to 1:10 26.98 27.06 26.95 27.05 27.07 27.11
1/28/2023 01:00 to 0:10 27.00 27.00 27.11 27.05 27.05 27.02
1/28/2023 00:00 to 23:10 26.99 27.11 27.18 27.17 27.08 27.15
1/27/2023 23:00 to 22:10 27.09 27.13 27.00 27.08 27.30 27.26
1/27/2023 22:00 to 21:10 27.10 27.09 27.28 27.12 27.25 27.25
1/27/2023 21:00 to 20:10 27.11 27.22 27.05 27.09 27.14 27.15
1/27/2023 20:00 to 19:10 27.17 27.21 27.26 27.13 27.16 27.17
1/27/2023 19:00 to 18:10 27.20 27.08 27.13 27.17 27.06 27.09
1/27/2023 18:00 to 17:10 27.27 27.31 27.25 27.32 27.09 27.00
1/27/2023 17:00 to 16:10 26.94 26.97 26.69 26.34 26.77 27.00
1/27/2023 16:00 to 15:10 27.07 26.96 27.10 27.20 26.99 27.08
1/27/2023 15:00 to 14:10 27.05 26.98 26.99 26.90 26.90 26.97
1/27/2023 14:00 to 13:10 27.22 27.00 27.29 27.18 27.10 27.08
1/27/2023 13:00 to 12:10 26.91 27.11 26.96 26.91 27.03 27.04
1/27/2023 12:00 to 11:10 27.01 27.04 26.74 26.93 26.75 26.86
1/27/2023 11:00 to 10:10 26.91 26.79 26.82 26.67 26.75 26.84
1/27/2023 10:00 to 9:10 26.57 26.66 26.70 26.73 26.58 26.76
1/27/2023 09:00 to 8:10 26.76 26.74 26.93 26.82 26.75 26.94
1/27/2023 08:00 to 7:10 26.73 26.79 26.71 26.76 26.78 26.70
1/27/2023 07:00 to 6:10 26.64 26.67 26.53 26.51 26.00 25.77
1/27/2023 06:00 to 5:10 25.81 25.88 25.86 25.96 25.99 25.93
1/27/2023 05:00 to 4:10 25.78 25.81 25.88 26.08 26.22 26.35
1/27/2023 04:00 to 3:10 26.36 26.45 26.32 26.38 26.43 26.37
1/27/2023 03:00 to 2:10 26.51 26.43 26.37 26.26 26.23 26.27
1/27/2023 02:00 to 1:10 26.18 26.15 26.18 26.09 25.97 26.01
1/27/2023 01:00 to 0:10 25.97 25.87 25.83 25.78 25.93 25.96
1/27/2023 00:00 to 23:10 25.98 25.88 25.95 25.99 25.86 25.93
1/26/2023 23:00 to 22:10 26.15 26.45 26.35 26.20 26.02 25.74
1/26/2023 22:00 to 21:10 25.57 25.38 25.20 25.26 25.10 25.22
1/26/2023 21:00 to 20:10 25.05 25.08 24.77 24.81 24.82 24.93
1/26/2023 20:00 to 19:10 25.12 25.52 25.89 25.88 26.06 26.02
1/26/2023 19:00 to 18:10 25.97 25.97 25.87 25.86 25.99 25.99
1/26/2023 18:00 to 17:10 25.83 25.71 25.76 25.70 25.71 25.83
1/26/2023 17:00 to 16:10 25.82 25.82 25.90 25.72 25.64 25.60
1/26/2023 16:00 to 15:10 25.44 25.47 25.46 25.34 25.30 25.33
1/26/2023 15:00 to 14:10 25.18 25.20 25.38 25.42 25.34 25.35
1/26/2023 14:00 to 13:10 25.38 25.37 25.28 24.94 25.19 25.08
1/26/2023 13:00 to 12:10 24.84 24.94 25.00 25.01 24.87 24.80
1/26/2023 12:00 to 11:10 24.88 25.02 25.21 25.48 25.43 25.19
1/26/2023 11:00 to 10:10 25.30 26.09 26.05 26.16 26.13 26.01
1/26/2023 10:00 to 9:10 25.99 26.02 26.01 26.15 26.13 26.20
1/26/2023 09:00 to 8:10 26.41 26.46 26.85 27.04 26.56 26.55
1/26/2023 08:00 to 7:10 26.56 26.59 26.55 26.69 26.61 26.72
1/26/2023 07:00 to 6:10 26.68 26.76 26.90 26.75 26.79 26.76
1/26/2023 06:00 to 5:10 26.88 26.83 26.80 26.83 26.87 26.87
1/26/2023 05:00 to 4:10 26.94 26.89 26.67 27.03 26.78 26.88
1/26/2023 04:00 to 3:10 26.87 26.85 26.91 26.99 26.85 26.90
1/26/2023 03:00 to 2:10 26.87 26.92 26.88 26.88 26.79 26.72
1/26/2023 02:00 to 1:10 26.88 26.86 26.92 26.71 26.81 26.73
1/26/2023 01:00 to 0:10 26.94 26.75 26.92 26.83 26.75 26.86